sensor_id;sensor_type;location;lat;lon;timestamp;P1;durP1;ratioP1;P2;durP2;ratioP2
23730;SDS011;12046;44.702;10.622;2024-02-21T00:01:35;39.35;;;31.50;;
23730;SDS011;12046;44.702;10.622;2024-02-21T00:04:01;43.05;;;34.30;;
23730;SDS011;12046;44.702;10.622;2024-02-21T00:06:27;39.60;;;32.78;;
23730;SDS011;12046;44.702;10.622;2024-02-21T00:08:52;40.65;;;32.63;;
23730;SDS011;12046;44.702;10.622;2024-02-21T00:11:19;36.95;;;29.95;;
23730;SDS011;12046;44.702;10.622;2024-02-21T00:13:45;34.03;;;28.98;;
23730;SDS011;12046;44.702;10.622;2024-02-21T00:16:10;33.15;;;27.48;;
23730;SDS011;12046;44.702;10.622;2024-02-21T00:18:36;30.77;;;26.70;;
23730;SDS011;12046;44.702;10.622;2024-02-21T00:21:02;31.20;;;26.27;;
23730;SDS011;12046;44.702;10.622;2024-02-21T00:23:28;30.55;;;25.45;;
23730;SDS011;12046;44.702;10.622;2024-02-21T00:25:54;32.03;;;26.20;;
23730;SDS011;12046;44.702;10.622;2024-02-21T00:28:20;30.73;;;24.90;;
23730;SDS011;12046;44.702;10.622;2024-02-21T00:30:46;26.35;;;22.98;;
23730;SDS011;12046;44.702;10.622;2024-02-21T00:33:13;29.25;;;23.83;;
23730;SDS011;12046;44.702;10.622;2024-02-21T00:35:39;26.33;;;23.35;;
23730;SDS011;12046;44.702;10.622;2024-02-21T00:38:04;26.10;;;22.40;;
23730;SDS011;12046;44.702;10.622;2024-02-21T00:40:30;27.70;;;23.77;;
23730;SDS011;12046;44.702;10.622;2024-02-21T00:42:56;26.55;;;23.23;;
23730;SDS011;12046;44.702;10.622;2024-02-21T00:45:22;28.08;;;23.77;;
23730;SDS011;12046;44.702;10.622;2024-02-21T00:47:47;29.20;;;24.35;;
23730;SDS011;12046;44.702;10.622;2024-02-21T00:50:13;27.73;;;23.00;;
23730;SDS011;12046;44.702;10.622;2024-02-21T00:52:39;26.70;;;23.33;;
23730;SDS011;12046;44.702;10.622;2024-02-21T00:55:04;26.80;;;22.52;;
23730;SDS011;12046;44.702;10.622;2024-02-21T00:57:30;26.85;;;23.35;;
23730;SDS011;12046;44.702;10.622;2024-02-21T00:59:57;27.67;;;23.58;;
23730;SDS011;12046;44.702;10.622;2024-02-21T01:02:22;27.75;;;23.10;;
23730;SDS011;12046;44.702;10.622;2024-02-21T01:04:48;28.85;;;24.05;;
23730;SDS011;12046;44.702;10.622;2024-02-21T01:07:14;29.02;;;24.23;;
23730;SDS011;12046;44.702;10.622;2024-02-21T01:09:40;29.15;;;23.67;;
23730;SDS011;12046;44.702;10.622;2024-02-21T01:12:06;29.25;;;23.95;;
23730;SDS011;12046;44.702;10.622;2024-02-21T01:14:31;27.25;;;23.23;;
23730;SDS011;12046;44.702;10.622;2024-02-21T01:16:57;28.55;;;24.00;;
23730;SDS011;12046;44.702;10.622;2024-02-21T01:19:23;26.80;;;23.40;;
23730;SDS011;12046;44.702;10.622;2024-02-21T01:21:49;29.25;;;24.77;;
23730;SDS011;12046;44.702;10.622;2024-02-21T01:24:14;28.30;;;24.15;;
23730;SDS011;12046;44.702;10.622;2024-02-21T01:26:40;29.08;;;24.60;;
23730;SDS011;12046;44.702;10.622;2024-02-21T01:29:06;31.70;;;26.23;;
23730;SDS011;12046;44.702;10.622;2024-02-21T01:31:32;31.58;;;26.25;;
23730;SDS011;12046;44.702;10.622;2024-02-21T01:33:57;30.52;;;25.38;;
23730;SDS011;12046;44.702;10.622;2024-02-21T01:36:23;31.05;;;26.20;;
23730;SDS011;12046;44.702;10.622;2024-02-21T01:38:49;30.33;;;25.23;;
23730;SDS011;12046;44.702;10.622;2024-02-21T01:41:15;26.30;;;23.42;;
23730;SDS011;12046;44.702;10.622;2024-02-21T01:43:42;27.48;;;22.83;;
23730;SDS011;12046;44.702;10.622;2024-02-21T01:46:08;29.98;;;24.17;;
23730;SDS011;12046;44.702;10.622;2024-02-21T01:48:33;30.42;;;24.33;;
23730;SDS011;12046;44.702;10.622;2024-02-21T01:50:59;29.40;;;25.73;;
23730;SDS011;12046;44.702;10.622;2024-02-21T01:53:36;33.58;;;28.33;;
23730;SDS011;12046;44.702;10.622;2024-02-21T01:56:03;31.70;;;26.67;;
23730;SDS011;12046;44.702;10.622;2024-02-21T01:58:30;34.47;;;27.67;;
23730;SDS011;12046;44.702;10.622;2024-02-21T02:00:58;33.35;;;28.45;;
23730;SDS011;12046;44.702;10.622;2024-02-21T02:03:24;35.35;;;29.08;;
23730;SDS011;12046;44.702;10.622;2024-02-21T02:05:51;32.03;;;26.55;;
23730;SDS011;12046;44.702;10.622;2024-02-21T02:08:17;29.58;;;25.50;;
23730;SDS011;12046;44.702;10.622;2024-02-21T02:10:43;29.45;;;25.48;;
23730;SDS011;12046;44.702;10.622;2024-02-21T02:13:09;27.83;;;23.88;;
23730;SDS011;12046;44.702;10.622;2024-02-21T02:15:53;31.65;;;25.27;;
23730;SDS011;12046;44.702;10.622;2024-02-21T02:18:19;33.55;;;28.00;;
23730;SDS011;12046;44.702;10.622;2024-02-21T02:20:45;32.95;;;26.73;;
23730;SDS011;12046;44.702;10.622;2024-02-21T02:23:12;31.60;;;25.95;;
23730;SDS011;12046;44.702;10.622;2024-02-21T02:25:39;30.90;;;24.73;;
23730;SDS011;12046;44.702;10.622;2024-02-21T02:28:05;30.85;;;24.55;;
23730;SDS011;12046;44.702;10.622;2024-02-21T02:30:35;30.38;;;25.02;;
23730;SDS011;12046;44.702;10.622;2024-02-21T02:33:04;38.72;;;30.45;;
23730;SDS011;12046;44.702;10.622;2024-02-21T02:35:30;38.70;;;31.02;;
23730;SDS011;12046;44.702;10.622;2024-02-21T02:37:55;41.33;;;31.45;;
23730;SDS011;12046;44.702;10.622;2024-02-21T02:40:21;37.50;;;30.63;;
23730;SDS011;12046;44.702;10.622;2024-02-21T02:42:47;37.88;;;30.75;;
23730;SDS011;12046;44.702;10.622;2024-02-21T02:45:14;39.83;;;31.13;;
23730;SDS011;12046;44.702;10.622;2024-02-21T02:47:40;43.63;;;32.88;;
23730;SDS011;12046;44.702;10.622;2024-02-21T02:50:06;41.22;;;32.67;;
23730;SDS011;12046;44.702;10.622;2024-02-21T02:52:32;39.95;;;32.10;;
23730;SDS011;12046;44.702;10.622;2024-02-21T02:54:58;38.38;;;30.27;;
23730;SDS011;12046;44.702;10.622;2024-02-21T02:57:23;37.80;;;30.73;;
23730;SDS011;12046;44.702;10.622;2024-02-21T02:59:50;34.58;;;27.63;;
23730;SDS011;12046;44.702;10.622;2024-02-21T03:02:15;34.60;;;26.80;;
23730;SDS011;12046;44.702;10.622;2024-02-21T03:04:41;31.25;;;24.98;;
23730;SDS011;12046;44.702;10.622;2024-02-21T03:07:07;29.80;;;24.35;;
23730;SDS011;12046;44.702;10.622;2024-02-21T03:09:32;30.42;;;25.00;;
23730;SDS011;12046;44.702;10.622;2024-02-21T03:11:58;31.65;;;25.95;;
23730;SDS011;12046;44.702;10.622;2024-02-21T03:14:28;37.05;;;29.25;;
23730;SDS011;12046;44.702;10.622;2024-02-21T03:16:54;43.70;;;34.00;;
23730;SDS011;12046;44.702;10.622;2024-02-21T03:19:20;41.40;;;33.60;;
23730;SDS011;12046;44.702;10.622;2024-02-21T03:21:46;43.20;;;33.38;;
23730;SDS011;12046;44.702;10.622;2024-02-21T03:24:11;44.47;;;34.22;;
23730;SDS011;12046;44.702;10.622;2024-02-21T03:26:37;39.67;;;31.67;;
23730;SDS011;12046;44.702;10.622;2024-02-21T03:29:05;37.78;;;29.90;;
23730;SDS011;12046;44.702;10.622;2024-02-21T03:31:31;35.20;;;28.83;;
23730;SDS011;12046;44.702;10.622;2024-02-21T03:33:57;34.03;;;27.08;;
23730;SDS011;12046;44.702;10.622;2024-02-21T03:36:22;32.58;;;26.60;;
23730;SDS011;12046;44.702;10.622;2024-02-21T03:38:48;33.17;;;26.92;;
23730;SDS011;12046;44.702;10.622;2024-02-21T03:41:14;32.33;;;24.45;;
23730;SDS011;12046;44.702;10.622;2024-02-21T03:43:40;29.70;;;23.83;;
23730;SDS011;12046;44.702;10.622;2024-02-21T03:46:05;27.85;;;22.48;;
23730;SDS011;12046;44.702;10.622;2024-02-21T03:48:32;28.45;;;22.75;;
23730;SDS011;12046;44.702;10.622;2024-02-21T03:50:58;25.58;;;21.67;;
23730;SDS011;12046;44.702;10.622;2024-02-21T03:53:23;28.95;;;23.63;;
23730;SDS011;12046;44.702;10.622;2024-02-21T03:55:49;34.92;;;25.67;;
23730;SDS011;12046;44.702;10.622;2024-02-21T03:58:14;28.75;;;24.25;;
23730;SDS011;12046;44.702;10.622;2024-02-21T04:00:40;29.10;;;24.77;;
23730;SDS011;12046;44.702;10.622;2024-02-21T04:03:06;28.65;;;23.75;;
23730;SDS011;12046;44.702;10.622;2024-02-21T04:05:32;28.45;;;22.55;;
23730;SDS011;12046;44.702;10.622;2024-02-21T04:07:58;31.45;;;24.30;;
23730;SDS011;12046;44.702;10.622;2024-02-21T04:10:24;30.30;;;24.27;;
23730;SDS011;12046;44.702;10.622;2024-02-21T04:12:49;30.65;;;24.17;;
23730;SDS011;12046;44.702;10.622;2024-02-21T04:15:16;30.63;;;24.17;;
23730;SDS011;12046;44.702;10.622;2024-02-21T04:17:41;29.58;;;23.65;;
23730;SDS011;12046;44.702;10.622;2024-02-21T04:20:13;27.83;;;22.63;;
23730;SDS011;12046;44.702;10.622;2024-02-21T04:22:39;29.85;;;23.00;;
23730;SDS011;12046;44.702;10.622;2024-02-21T04:25:04;30.60;;;24.77;;
23730;SDS011;12046;44.702;10.622;2024-02-21T04:27:30;29.40;;;23.40;;
23730;SDS011;12046;44.702;10.622;2024-02-21T04:29:56;31.00;;;24.80;;
23730;SDS011;12046;44.702;10.622;2024-02-21T04:32:21;32.10;;;25.90;;
23730;SDS011;12046;44.702;10.622;2024-02-21T04:34:47;31.58;;;25.73;;
23730;SDS011;12046;44.702;10.622;2024-02-21T04:37:13;28.60;;;24.25;;
23730;SDS011;12046;44.702;10.622;2024-02-21T04:39:38;28.67;;;23.75;;
23730;SDS011;12046;44.702;10.622;2024-02-21T04:42:04;29.17;;;23.25;;
23730;SDS011;12046;44.702;10.622;2024-02-21T04:44:30;30.30;;;25.27;;
23730;SDS011;12046;44.702;10.622;2024-02-21T04:46:55;31.23;;;24.60;;
23730;SDS011;12046;44.702;10.622;2024-02-21T04:49:21;30.08;;;24.05;;
23730;SDS011;12046;44.702;10.622;2024-02-21T04:51:47;27.95;;;22.15;;
23730;SDS011;12046;44.702;10.622;2024-02-21T04:54:12;28.58;;;23.08;;
23730;SDS011;12046;44.702;10.622;2024-02-21T04:56:38;27.88;;;22.95;;
23730;SDS011;12046;44.702;10.622;2024-02-21T04:59:04;37.22;;;29.65;;
23730;SDS011;12046;44.702;10.622;2024-02-21T05:01:29;33.95;;;27.30;;
23730;SDS011;12046;44.702;10.622;2024-02-21T05:03:55;32.28;;;25.80;;
23730;SDS011;12046;44.702;10.622;2024-02-21T05:06:21;30.30;;;25.30;;
23730;SDS011;12046;44.702;10.622;2024-02-21T05:08:46;29.30;;;24.30;;
23730;SDS011;12046;44.702;10.622;2024-02-21T05:11:13;31.00;;;24.33;;
23730;SDS011;12046;44.702;10.622;2024-02-21T05:13:38;29.30;;;23.40;;
23730;SDS011;12046;44.702;10.622;2024-02-21T05:16:04;30.25;;;24.65;;
23730;SDS011;12046;44.702;10.622;2024-02-21T05:18:30;29.48;;;23.90;;
23730;SDS011;12046;44.702;10.622;2024-02-21T05:20:56;28.63;;;23.83;;
23730;SDS011;12046;44.702;10.622;2024-02-21T05:23:21;29.83;;;24.08;;
23730;SDS011;12046;44.702;10.622;2024-02-21T05:25:47;33.00;;;26.30;;
23730;SDS011;12046;44.702;10.622;2024-02-21T05:28:13;35.40;;;28.20;;
23730;SDS011;12046;44.702;10.622;2024-02-21T05:30:38;35.22;;;26.88;;
23730;SDS011;12046;44.702;10.622;2024-02-21T05:33:06;32.53;;;26.08;;
23730;SDS011;12046;44.702;10.622;2024-02-21T05:35:32;31.25;;;25.42;;
23730;SDS011;12046;44.702;10.622;2024-02-21T05:37:57;31.25;;;25.13;;
23730;SDS011;12046;44.702;10.622;2024-02-21T05:40:24;31.75;;;25.70;;
23730;SDS011;12046;44.702;10.622;2024-02-21T05:42:51;31.48;;;25.85;;
23730;SDS011;12046;44.702;10.622;2024-02-21T05:45:18;30.33;;;24.65;;
23730;SDS011;12046;44.702;10.622;2024-02-21T05:47:44;33.05;;;25.73;;
23730;SDS011;12046;44.702;10.622;2024-02-21T05:50:09;31.15;;;25.42;;
23730;SDS011;12046;44.702;10.622;2024-02-21T05:52:35;31.27;;;24.80;;
23730;SDS011;12046;44.702;10.622;2024-02-21T05:55:01;32.53;;;26.20;;
23730;SDS011;12046;44.702;10.622;2024-02-21T05:57:27;32.15;;;25.83;;
23730;SDS011;12046;44.702;10.622;2024-02-21T05:59:52;33.10;;;25.65;;
23730;SDS011;12046;44.702;10.622;2024-02-21T06:02:18;32.33;;;25.77;;
23730;SDS011;12046;44.702;10.622;2024-02-21T06:04:44;32.33;;;25.17;;
23730;SDS011;12046;44.702;10.622;2024-02-21T06:07:11;31.70;;;25.73;;
23730;SDS011;12046;44.702;10.622;2024-02-21T06:09:37;31.77;;;26.00;;
23730;SDS011;12046;44.702;10.622;2024-02-21T06:12:03;37.60;;;29.15;;
23730;SDS011;12046;44.702;10.622;2024-02-21T06:14:29;42.83;;;32.58;;
23730;SDS011;12046;44.702;10.622;2024-02-21T06:16:54;40.78;;;31.20;;
23730;SDS011;12046;44.702;10.622;2024-02-21T06:19:20;40.40;;;31.10;;
23730;SDS011;12046;44.702;10.622;2024-02-21T06:21:46;38.65;;;30.23;;
23730;SDS011;12046;44.702;10.622;2024-02-21T06:24:11;38.50;;;29.02;;
23730;SDS011;12046;44.702;10.622;2024-02-21T06:26:38;37.63;;;29.75;;
23730;SDS011;12046;44.702;10.622;2024-02-21T06:29:05;41.90;;;31.17;;
23730;SDS011;12046;44.702;10.622;2024-02-21T06:31:32;40.13;;;30.98;;
23730;SDS011;12046;44.702;10.622;2024-02-21T06:33:58;41.95;;;31.13;;
23730;SDS011;12046;44.702;10.622;2024-02-21T06:36:24;42.42;;;32.33;;
23730;SDS011;12046;44.702;10.622;2024-02-21T06:38:49;41.92;;;31.67;;
23730;SDS011;12046;44.702;10.622;2024-02-21T06:41:15;45.83;;;34.00;;
23730;SDS011;12046;44.702;10.622;2024-02-21T06:43:41;44.38;;;34.60;;
23730;SDS011;12046;44.702;10.622;2024-02-21T06:46:07;44.17;;;33.88;;
23730;SDS011;12046;44.702;10.622;2024-02-21T06:48:33;46.83;;;35.42;;
23730;SDS011;12046;44.702;10.622;2024-02-21T06:50:58;46.28;;;35.85;;
23730;SDS011;12046;44.702;10.622;2024-02-21T06:53:24;47.45;;;35.88;;
23730;SDS011;12046;44.702;10.622;2024-02-21T06:55:49;42.28;;;32.45;;
23730;SDS011;12046;44.702;10.622;2024-02-21T06:58:15;43.95;;;34.63;;
23730;SDS011;12046;44.702;10.622;2024-02-21T07:00:42;44.78;;;33.08;;
23730;SDS011;12046;44.702;10.622;2024-02-21T07:03:08;45.00;;;33.78;;
23730;SDS011;12046;44.702;10.622;2024-02-21T07:05:33;42.38;;;32.58;;
23730;SDS011;12046;44.702;10.622;2024-02-21T07:07:59;43.53;;;34.00;;
23730;SDS011;12046;44.702;10.622;2024-02-21T07:10:25;45.28;;;34.85;;
23730;SDS011;12046;44.702;10.622;2024-02-21T07:12:51;48.05;;;37.47;;
23730;SDS011;12046;44.702;10.622;2024-02-21T07:15:18;46.47;;;36.17;;
23730;SDS011;12046;44.702;10.622;2024-02-21T07:17:44;45.50;;;34.95;;
23730;SDS011;12046;44.702;10.622;2024-02-21T07:20:09;46.58;;;35.13;;
23730;SDS011;12046;44.702;10.622;2024-02-21T07:22:35;45.60;;;34.80;;
23730;SDS011;12046;44.702;10.622;2024-02-21T07:25:01;43.60;;;34.97;;
23730;SDS011;12046;44.702;10.622;2024-02-21T07:27:27;42.22;;;34.10;;
23730;SDS011;12046;44.702;10.622;2024-02-21T07:29:56;43.28;;;34.90;;
23730;SDS011;12046;44.702;10.622;2024-02-21T08:01:03;28.23;;;25.20;;
23730;SDS011;12046;44.702;10.622;2024-02-21T08:03:29;30.83;;;26.92;;
23730;SDS011;12046;44.702;10.622;2024-02-21T08:05:55;28.52;;;25.27;;
23730;SDS011;12046;44.702;10.622;2024-02-21T08:08:20;32.80;;;27.10;;
23730;SDS011;12046;44.702;10.622;2024-02-21T08:10:50;28.20;;;25.20;;
23730;SDS011;12046;44.702;10.622;2024-02-21T08:13:16;30.33;;;27.02;;
23730;SDS011;12046;44.702;10.622;2024-02-21T08:15:44;29.88;;;26.73;;
23730;SDS011;12046;44.702;10.622;2024-02-21T08:18:10;30.13;;;27.00;;
23730;SDS011;12046;44.702;10.622;2024-02-21T08:20:36;32.40;;;28.30;;
23730;SDS011;12046;44.702;10.622;2024-02-21T08:23:01;32.85;;;29.35;;
23730;SDS011;12046;44.702;10.622;2024-02-21T08:25:27;34.00;;;30.38;;
23730;SDS011;12046;44.702;10.622;2024-02-21T08:27:57;31.77;;;28.52;;
23730;SDS011;12046;44.702;10.622;2024-02-21T08:30:26;30.70;;;26.73;;
23730;SDS011;12046;44.702;10.622;2024-02-21T08:32:52;27.75;;;24.60;;
23730;SDS011;12046;44.702;10.622;2024-02-21T08:35:19;27.63;;;24.92;;
23730;SDS011;12046;44.702;10.622;2024-02-21T08:37:46;30.38;;;27.38;;
23730;SDS011;12046;44.702;10.622;2024-02-21T08:40:13;28.85;;;25.95;;
23730;SDS011;12046;44.702;10.622;2024-02-21T08:42:43;29.00;;;26.02;;
23730;SDS011;12046;44.702;10.622;2024-02-21T08:45:09;35.60;;;32.03;;
23730;SDS011;12046;44.702;10.622;2024-02-21T08:47:35;34.15;;;30.75;;
23730;SDS011;12046;44.702;10.622;2024-02-21T08:50:03;31.73;;;28.42;;
23730;SDS011;12046;44.702;10.622;2024-02-21T08:52:33;28.88;;;25.83;;
23730;SDS011;12046;44.702;10.622;2024-02-21T08:54:59;29.33;;;26.15;;
23730;SDS011;12046;44.702;10.622;2024-02-21T08:57:25;27.45;;;24.63;;
23730;SDS011;12046;44.702;10.622;2024-02-21T08:59:50;27.05;;;24.15;;
23730;SDS011;12046;44.702;10.622;2024-02-21T09:02:16;27.35;;;24.45;;
23730;SDS011;12046;44.702;10.622;2024-02-21T09:04:42;27.58;;;24.65;;
23730;SDS011;12046;44.702;10.622;2024-02-21T09:07:09;29.42;;;26.13;;
23730;SDS011;12046;44.702;10.622;2024-02-21T09:09:35;27.02;;;24.33;;
23730;SDS011;12046;44.702;10.622;2024-02-21T09:12:01;27.88;;;25.00;;
23730;SDS011;12046;44.702;10.622;2024-02-21T09:14:31;28.50;;;25.35;;
23730;SDS011;12046;44.702;10.622;2024-02-21T09:16:57;29.70;;;26.50;;
23730;SDS011;12046;44.702;10.622;2024-02-21T09:19:23;28.70;;;25.70;;
23730;SDS011;12046;44.702;10.622;2024-02-21T09:21:48;25.48;;;22.88;;
23730;SDS011;12046;44.702;10.622;2024-02-21T09:24:14;25.90;;;23.38;;
23730;SDS011;12046;44.702;10.622;2024-02-21T09:26:40;23.55;;;21.15;;
23730;SDS011;12046;44.702;10.622;2024-02-21T09:29:05;28.23;;;25.42;;
23730;SDS011;12046;44.702;10.622;2024-02-21T09:31:31;23.38;;;21.13;;
23730;SDS011;12046;44.702;10.622;2024-02-21T09:33:57;22.83;;;20.67;;
23730;SDS011;12046;44.702;10.622;2024-02-21T09:36:23;19.67;;;17.88;;
23730;SDS011;12046;44.702;10.622;2024-02-21T09:38:49;19.52;;;17.67;;
23730;SDS011;12046;44.702;10.622;2024-02-21T09:41:18;23.92;;;21.73;;
23730;SDS011;12046;44.702;10.622;2024-02-21T09:43:44;20.40;;;18.52;;
23730;SDS011;12046;44.702;10.622;2024-02-21T09:46:15;15.43;;;14.13;;
23730;SDS011;12046;44.702;10.622;2024-02-21T09:51:13;17.45;;;12.18;;
23730;SDS011;12046;44.702;10.622;2024-02-21T09:53:39;14.90;;;13.40;;
23730;SDS011;12046;44.702;10.622;2024-02-21T09:56:07;13.00;;;11.80;;
23730;SDS011;12046;44.702;10.622;2024-02-21T09:58:33;11.77;;;10.73;;
23730;SDS011;12046;44.702;10.622;2024-02-21T10:01:00;11.18;;;10.27;;
23730;SDS011;12046;44.702;10.622;2024-02-21T10:03:26;11.38;;;10.20;;
23730;SDS011;12046;44.702;10.622;2024-02-21T10:05:51;11.52;;;10.48;;
23730;SDS011;12046;44.702;10.622;2024-02-21T10:08:18;13.35;;;10.30;;
23730;SDS011;12046;44.702;10.622;2024-02-21T10:10:45;11.55;;;9.15;;
23730;SDS011;12046;44.702;10.622;2024-02-21T10:13:11;10.02;;;8.32;;
23730;SDS011;12046;44.702;10.622;2024-02-21T10:15:37;14.10;;;12.35;;
23730;SDS011;12046;44.702;10.622;2024-02-21T10:18:03;12.20;;;11.00;;
23730;SDS011;12046;44.702;10.622;2024-02-21T10:20:29;13.00;;;12.00;;
23730;SDS011;12046;44.702;10.622;2024-02-21T10:23:02;11.38;;;10.40;;
23730;SDS011;12046;44.702;10.622;2024-02-21T10:25:29;10.57;;;9.73;;
23730;SDS011;12046;44.702;10.622;2024-02-21T10:27:56;10.27;;;9.50;;
23730;SDS011;12046;44.702;10.622;2024-02-21T10:30:22;11.27;;;10.25;;
23730;SDS011;12046;44.702;10.622;2024-02-21T10:32:48;10.55;;;9.75;;
23730;SDS011;12046;44.702;10.622;2024-02-21T10:35:15;9.70;;;9.00;;
23730;SDS011;12046;44.702;10.622;2024-02-21T10:37:50;10.88;;;10.07;;
23730;SDS011;12046;44.702;10.622;2024-02-21T10:40:30;10.93;;;10.13;;
23730;SDS011;12046;44.702;10.622;2024-02-21T10:42:59;12.63;;;11.73;;
23730;SDS011;12046;44.702;10.622;2024-02-21T10:47:52;10.80;;;10.00;;
23730;SDS011;12046;44.702;10.622;2024-02-21T10:50:19;8.82;;;8.23;;
23730;SDS011;12046;44.702;10.622;2024-02-21T10:52:51;9.93;;;9.13;;
23730;SDS011;12046;44.702;10.622;2024-02-21T10:55:20;10.07;;;9.27;;
23730;SDS011;12046;44.702;10.622;2024-02-21T10:57:49;9.48;;;8.77;;
23730;SDS011;12046;44.702;10.622;2024-02-21T11:00:15;9.93;;;8.95;;
23730;SDS011;12046;44.702;10.622;2024-02-21T11:02:43;9.77;;;9.00;;
23730;SDS011;12046;44.702;10.622;2024-02-21T11:05:09;10.85;;;10.05;;
23730;SDS011;12046;44.702;10.622;2024-02-21T11:07:35;11.45;;;10.55;;
23730;SDS011;12046;44.702;10.622;2024-02-21T11:10:02;12.73;;;11.63;;
23730;SDS011;12046;44.702;10.622;2024-02-21T11:12:36;11.10;;;10.30;;
23730;SDS011;12046;44.702;10.622;2024-02-21T11:15:10;11.43;;;10.52;;
23730;SDS011;12046;44.702;10.622;2024-02-21T11:17:37;12.63;;;11.60;;
23730;SDS011;12046;44.702;10.622;2024-02-21T11:20:12;11.88;;;10.80;;
23730;SDS011;12046;44.702;10.622;2024-02-21T11:22:42;11.40;;;10.50;;
23730;SDS011;12046;44.702;10.622;2024-02-21T11:25:08;11.05;;;10.25;;
23730;SDS011;12046;44.702;10.622;2024-02-21T11:27:45;11.40;;;10.50;;
23730;SDS011;12046;44.702;10.622;2024-02-21T11:30:11;14.52;;;13.40;;
23730;SDS011;12046;44.702;10.622;2024-02-21T11:32:37;13.48;;;12.38;;
23730;SDS011;12046;44.702;10.622;2024-02-21T11:35:03;15.45;;;14.15;;
23730;SDS011;12046;44.702;10.622;2024-02-21T11:37:34;13.70;;;12.57;;
23730;SDS011;12046;44.702;10.622;2024-02-21T11:40:02;15.13;;;13.93;;
23730;SDS011;12046;44.702;10.622;2024-02-21T11:42:28;16.70;;;15.27;;
23730;SDS011;12046;44.702;10.622;2024-02-21T11:44:56;15.15;;;13.75;;
23730;SDS011;12046;44.702;10.622;2024-02-21T11:47:24;13.52;;;12.43;;
23730;SDS011;12046;44.702;10.622;2024-02-21T11:49:50;14.60;;;13.20;;
23730;SDS011;12046;44.702;10.622;2024-02-21T11:52:21;14.55;;;13.25;;
23730;SDS011;12046;44.702;10.622;2024-02-21T11:54:47;13.82;;;12.52;;
23730;SDS011;12046;44.702;10.622;2024-02-21T11:57:13;14.32;;;13.07;;
23730;SDS011;12046;44.702;10.622;2024-02-21T11:59:40;18.40;;;16.80;;
23730;SDS011;12046;44.702;10.622;2024-02-21T12:02:06;14.73;;;13.52;;
23730;SDS011;12046;44.702;10.622;2024-02-21T12:04:32;18.42;;;16.70;;
23730;SDS011;12046;44.702;10.622;2024-02-21T12:06:58;16.10;;;14.65;;
23730;SDS011;12046;44.702;10.622;2024-02-21T12:09:24;15.57;;;14.18;;
23730;SDS011;12046;44.702;10.622;2024-02-21T12:12:04;15.93;;;14.55;;
23730;SDS011;12046;44.702;10.622;2024-02-21T12:14:31;17.02;;;15.52;;
23730;SDS011;12046;44.702;10.622;2024-02-21T12:16:57;15.80;;;14.25;;
23730;SDS011;12046;44.702;10.622;2024-02-21T12:19:23;20.88;;;18.98;;
23730;SDS011;12046;44.702;10.622;2024-02-21T12:21:49;17.73;;;16.13;;
23730;SDS011;12046;44.702;10.622;2024-02-21T12:26:49;15.98;;;14.52;;
23730;SDS011;12046;44.702;10.622;2024-02-21T12:29:14;19.90;;;18.00;;
23730;SDS011;12046;44.702;10.622;2024-02-21T12:31:40;20.48;;;18.52;;
23730;SDS011;12046;44.702;10.622;2024-02-21T12:34:06;19.70;;;18.00;;
23730;SDS011;12046;44.702;10.622;2024-02-21T12:36:32;22.73;;;20.73;;
23730;SDS011;12046;44.702;10.622;2024-02-21T12:38:59;22.33;;;20.33;;
23730;SDS011;12046;44.702;10.622;2024-02-21T12:41:26;22.95;;;20.85;;
23730;SDS011;12046;44.702;10.622;2024-02-21T12:43:52;18.63;;;16.92;;
23730;SDS011;12046;44.702;10.622;2024-02-21T12:46:18;17.88;;;16.23;;
23730;SDS011;12046;44.702;10.622;2024-02-21T12:48:44;16.65;;;15.18;;
23730;SDS011;12046;44.702;10.622;2024-02-21T12:51:10;19.50;;;17.80;;
23730;SDS011;12046;44.702;10.622;2024-02-21T12:53:36;17.75;;;16.02;;
23730;SDS011;12046;44.702;10.622;2024-02-21T12:56:02;17.10;;;15.50;;
23730;SDS011;12046;44.702;10.622;2024-02-21T12:58:30;21.08;;;19.08;;
23730;SDS011;12046;44.702;10.622;2024-02-21T13:00:57;18.00;;;16.30;;
23730;SDS011;12046;44.702;10.622;2024-02-21T13:03:22;17.83;;;16.17;;
23730;SDS011;12046;44.702;10.622;2024-02-21T13:05:48;24.80;;;22.48;;
23730;SDS011;12046;44.702;10.622;2024-02-21T13:08:14;20.20;;;18.30;;
23730;SDS011;12046;44.702;10.622;2024-02-21T13:10:40;19.05;;;17.25;;
23730;SDS011;12046;44.702;10.622;2024-02-21T13:13:06;19.10;;;17.40;;
23730;SDS011;12046;44.702;10.622;2024-02-21T13:15:31;17.08;;;15.48;;
23730;SDS011;12046;44.702;10.622;2024-02-21T13:17:57;18.17;;;16.60;;
23730;SDS011;12046;44.702;10.622;2024-02-21T13:20:27;17.70;;;16.10;;
23730;SDS011;12046;44.702;10.622;2024-02-21T13:22:54;17.48;;;15.95;;
23730;SDS011;12046;44.702;10.622;2024-02-21T13:25:20;17.00;;;15.30;;
23730;SDS011;12046;44.702;10.622;2024-02-21T13:27:47;19.38;;;17.67;;
23730;SDS011;12046;44.702;10.622;2024-02-21T13:30:13;18.42;;;16.63;;
23730;SDS011;12046;44.702;10.622;2024-02-21T13:32:41;18.58;;;16.67;;
23730;SDS011;12046;44.702;10.622;2024-02-21T13:35:07;17.95;;;15.95;;
23730;SDS011;12046;44.702;10.622;2024-02-21T13:37:33;18.40;;;16.80;;
23730;SDS011;12046;44.702;10.622;2024-02-21T13:40:00;19.65;;;17.75;;
23730;SDS011;12046;44.702;10.622;2024-02-21T13:42:25;19.05;;;17.35;;
23730;SDS011;12046;44.702;10.622;2024-02-21T13:44:53;21.00;;;18.75;;
23730;SDS011;12046;44.702;10.622;2024-02-21T13:47:18;18.13;;;16.42;;
23730;SDS011;12046;44.702;10.622;2024-02-21T13:49:44;23.63;;;21.30;;
23730;SDS011;12046;44.702;10.622;2024-02-21T13:52:10;22.27;;;18.60;;
23730;SDS011;12046;44.702;10.622;2024-02-21T13:54:36;18.95;;;17.10;;
23730;SDS011;12046;44.702;10.622;2024-02-21T13:57:01;18.10;;;16.42;;
23730;SDS011;12046;44.702;10.622;2024-02-21T13:59:28;21.75;;;19.25;;
23730;SDS011;12046;44.702;10.622;2024-02-21T14:01:53;18.92;;;17.00;;
23730;SDS011;12046;44.702;10.622;2024-02-21T14:04:19;20.70;;;18.58;;
23730;SDS011;12046;44.702;10.622;2024-02-21T14:06:45;18.00;;;16.23;;
23730;SDS011;12046;44.702;10.622;2024-02-21T14:09:11;17.85;;;16.15;;
23730;SDS011;12046;44.702;10.622;2024-02-21T14:11:37;16.70;;;15.10;;
23730;SDS011;12046;44.702;10.622;2024-02-21T14:14:04;17.77;;;16.08;;
23730;SDS011;12046;44.702;10.622;2024-02-21T14:16:30;16.17;;;14.57;;
23730;SDS011;12046;44.702;10.622;2024-02-21T14:18:55;18.17;;;16.35;;
23730;SDS011;12046;44.702;10.622;2024-02-21T14:21:21;18.55;;;16.75;;
23730;SDS011;12046;44.702;10.622;2024-02-21T14:23:47;16.17;;;14.68;;
23730;SDS011;12046;44.702;10.622;2024-02-21T14:26:13;16.60;;;15.00;;
23730;SDS011;12046;44.702;10.622;2024-02-21T14:28:39;18.48;;;16.63;;
23730;SDS011;12046;44.702;10.622;2024-02-21T14:31:06;17.55;;;15.57;;
23730;SDS011;12046;44.702;10.622;2024-02-21T14:33:34;17.08;;;15.48;;
23730;SDS011;12046;44.702;10.622;2024-02-21T14:36:00;16.23;;;14.63;;
23730;SDS011;12046;44.702;10.622;2024-02-21T14:38:26;16.10;;;14.60;;
23730;SDS011;12046;44.702;10.622;2024-02-21T14:40:52;15.85;;;14.25;;